Terminal Aerodrome Forecast
Issued by NWS Shreveport, LA

Home | Current Version | Previous Version | Text Only | Print | Product List | Glossary On
Versions: 1 2 3 4 5 6 7 8 9 10 11 12 13 14 15 16 17 18 19 20 21 22 23
000
FTUS44 KSHV 192300
TAFELD
TAF
KELD 192336Z 2000/2024 VRB03KT P6SM SKC
     FM200700 00000KT 5SM BR SKC
      TEMPO 2010/2012 2SM BR
     FM201500 VRB04KT P6SM FEW050=

USA.gov is the U.S. government's official web portal to all federal, state and local government web resources and services.